createdAt,value
2023-02-16T00:00:37.958Z,15.88
2023-02-16T00:03:15.752Z,15.87
2023-02-16T00:05:46.586Z,15.53
2023-02-16T00:08:17.461Z,15.90
2023-02-16T00:10:50.010Z,15.59
2023-02-16T00:13:44.245Z,15.70
2023-02-16T00:16:22.301Z,15.56
2023-02-16T00:18:53.921Z,15.74
2023-02-16T00:21:24.501Z,15.33
2023-02-16T00:23:55.011Z,14.72
2023-02-16T00:26:28.526Z,15.20
2023-02-16T00:29:02.114Z,14.16
2023-02-16T00:31:33.052Z,13.81
2023-02-16T00:34:25.319Z,13.38
2023-02-16T00:36:56.774Z,13.16
2023-02-16T00:39:28.879Z,13.25
2023-02-16T00:42:05.607Z,13.74
2023-02-16T00:44:46.380Z,14.78
2023-02-16T00:47:24.735Z,14.72
2023-02-16T00:49:57.112Z,14.50
2023-02-16T00:52:43.888Z,13.11
2023-02-16T00:55:20.643Z,13.58
2023-02-16T00:58:00.010Z,13.56
2023-02-16T01:00:33.236Z,13.85
2023-02-16T01:03:06.721Z,13.12
2023-02-16T01:05:37.815Z,13.06
2023-02-16T01:08:41.855Z,13.09
2023-02-16T01:11:16.426Z,13.82
2023-02-16T01:13:50.153Z,14.16
2023-02-16T01:16:26.590Z,13.94
2023-02-16T01:18:57.425Z,13.90
2023-02-16T01:21:28.311Z,13.51
2023-02-16T01:23:59.178Z,13.31
2023-02-16T01:26:33.441Z,13.26
2023-02-16T01:29:04.192Z,13.08
2023-02-16T01:31:34.961Z,12.96
2023-02-16T01:34:05.881Z,12.99
2023-02-16T01:36:39.119Z,13.29
2023-02-16T01:39:11.224Z,14.02
2023-02-16T01:41:53.670Z,14.08
2023-02-16T01:44:30.122Z,14.52
2023-02-16T01:47:19.974Z,14.18
2023-02-16T01:49:50.742Z,14.90
2023-02-16T01:52:33.476Z,14.07
2023-02-16T01:55:25.146Z,14.44
2023-02-16T01:58:02.148Z,14.56
2023-02-16T02:00:56.952Z,14.35
2023-02-16T02:03:54.228Z,14.75
2023-02-16T02:06:31.335Z,14.68
2023-02-16T02:09:16.929Z,14.21
2023-02-16T02:11:54.206Z,14.37
2023-02-16T02:14:30.298Z,13.24
2023-02-16T02:17:06.955Z,12.92
2023-02-16T02:19:57.251Z,13.08
2023-02-16T02:23:01.057Z,13.27
2023-02-16T02:26:00.690Z,13.36
2023-02-16T02:28:50.834Z,13.04
2023-02-16T02:31:53.516Z,13.32
2023-02-16T02:34:37.492Z,13.41
2023-02-16T02:40:16.870Z,14.76
2023-02-16T02:43:16.248Z,14.89
2023-02-16T02:46:01.755Z,14.51
2023-02-16T02:48:33.181Z,14.81
2023-02-16T02:51:24.855Z,15.56
2023-02-16T02:54:37.377Z,15.21
2023-02-16T02:57:31.500Z,13.06
2023-02-16T03:00:32.357Z,14.50
2023-02-16T03:03:06.035Z,14.48
2023-02-16T03:05:39.249Z,14.90
2023-02-16T03:08:17.534Z,13.83
2023-02-16T03:11:10.274Z,14.53
2023-02-16T03:13:44.960Z,14.77
2023-02-16T03:16:21.827Z,14.13
2023-02-16T03:19:11.102Z,14.64
2023-02-16T03:22:00.840Z,14.15
2023-02-16T03:24:52.120Z,13.54
2023-02-16T03:27:44.769Z,14.90
2023-02-16T03:30:19.401Z,15.26
2023-02-16T03:32:52.150Z,15.02
2023-02-16T03:35:24.190Z,14.98
2023-02-16T03:37:58.050Z,14.74
2023-02-16T03:40:33.363Z,12.54
2023-02-16T03:43:09.075Z,14.24
2023-02-16T03:45:43.153Z,14.88
2023-02-16T03:48:15.295Z,14.40
2023-02-16T03:50:48.695Z,14.34
2023-02-16T03:53:21.029Z,13.65
2023-02-16T03:55:52.110Z,14.72
2023-02-16T03:58:26.634Z,14.77
2023-02-16T04:01:01.041Z,14.88
2023-02-16T04:03:32.898Z,14.76
2023-02-16T04:06:05.649Z,14.26
2023-02-16T04:08:38.074Z,13.72
2023-02-16T04:11:26.888Z,13.23
2023-02-16T04:13:58.381Z,13.85
2023-02-16T04:16:29.785Z,13.94
2023-02-16T04:19:02.828Z,14.48
2023-02-16T04:21:35.040Z,14.40
2023-02-16T04:24:15.458Z,14.65
2023-02-16T04:26:49.771Z,14.75
2023-02-16T04:29:21.986Z,14.05
2023-02-16T04:31:53.867Z,14.05
2023-02-16T04:34:27.253Z,14.24
2023-02-16T04:37:01.415Z,14.48
2023-02-16T04:39:34.297Z,14.71
2023-02-16T04:42:07.385Z,13.58
2023-02-16T04:44:40.756Z,13.71
2023-02-16T04:47:15.635Z,14.51
2023-02-16T04:49:49.236Z,14.31
2023-02-16T04:52:21.743Z,14.51
2023-02-16T04:54:55.882Z,14.42
2023-02-16T04:57:27.378Z,14.93
2023-02-16T05:00:02.203Z,14.67
2023-02-16T05:02:36.810Z,14.55
2023-02-16T05:05:09.298Z,14.35
2023-02-16T05:07:42.761Z,14.72
2023-02-16T05:10:16.258Z,14.97
2023-02-16T05:13:05.579Z,13.83
2023-02-16T05:15:37.621Z,14.62
2023-02-16T05:18:08.813Z,13.88
2023-02-16T05:20:58.139Z,14.22
2023-02-16T05:23:28.845Z,14.35
2023-02-16T05:26:00.581Z,15.22
2023-02-16T05:28:33.580Z,13.99
2023-02-16T05:31:05.582Z,14.20
2023-02-16T05:33:36.800Z,14.43
2023-02-16T05:36:08.237Z,14.21
2023-02-16T05:38:39.499Z,13.63
2023-02-16T05:41:10.917Z,14.13
2023-02-16T05:43:43.460Z,14.02
2023-02-16T05:46:18.073Z,13.66
2023-02-16T05:48:49.209Z,14.18
2023-02-16T05:51:21.307Z,15.37
2023-02-16T05:53:52.281Z,14.42
2023-02-16T05:56:26.513Z,13.95
2023-02-16T05:59:00.014Z,14.15
2023-02-16T06:01:30.738Z,14.40
2023-02-16T06:04:02.883Z,14.14
2023-02-16T06:06:36.606Z,14.38
2023-02-16T06:09:09.246Z,13.74
2023-02-16T06:11:41.257Z,14.05
2023-02-16T06:14:20.444Z,14.08
2023-02-16T06:16:52.435Z,13.98
2023-02-16T06:19:26.029Z,13.86
2023-02-16T06:22:02.480Z,14.28
2023-02-16T06:24:33.464Z,14.86
2023-02-16T06:27:08.244Z,13.75
2023-02-16T06:29:39.365Z,14.15
2023-02-16T06:32:12.790Z,14.21
2023-02-16T06:34:43.827Z,14.15
2023-02-16T06:37:16.094Z,13.68
2023-02-16T06:39:46.777Z,14.20
2023-02-16T06:42:20.531Z,14.69
2023-02-16T06:44:53.288Z,13.90
2023-02-16T06:47:25.620Z,13.62
2023-02-16T06:49:57.009Z,14.13
2023-02-16T06:52:30.131Z,14.43
2023-02-16T06:55:06.909Z,14.30
2023-02-16T06:57:40.142Z,14.64
2023-02-16T07:00:11.493Z,14.51
2023-02-16T07:02:44.034Z,14.71
2023-02-16T07:05:15.979Z,14.10
2023-02-16T07:07:47.860Z,14.82
2023-02-16T07:10:21.760Z,13.92
2023-02-16T07:12:53.436Z,14.30
2023-02-16T07:15:27.116Z,15.03
2023-02-16T07:17:59.222Z,13.85
2023-02-16T07:20:31.641Z,13.88
2023-02-16T07:23:03.902Z,14.52
2023-02-16T07:25:37.269Z,14.05
2023-02-16T07:28:08.828Z,14.00
2023-02-16T07:30:40.946Z,15.14
2023-02-16T07:33:11.688Z,14.43
2023-02-16T07:35:43.098Z,14.27
2023-02-16T07:38:13.988Z,14.32
2023-02-16T07:40:44.645Z,14.20
2023-02-16T07:43:15.300Z,14.02
2023-02-16T07:45:46.265Z,14.47
2023-02-16T07:48:17.209Z,14.39
2023-02-16T07:50:48.084Z,13.53
2023-02-16T07:53:19.151Z,15.24
2023-02-16T07:55:49.794Z,15.25
2023-02-16T07:58:30.103Z,15.37
2023-02-16T08:01:15.936Z,15.86
2023-02-16T08:03:46.996Z,15.92
2023-02-16T08:06:18.844Z,15.83
2023-02-16T08:08:50.789Z,15.50
2023-02-16T08:11:24.607Z,14.96
2023-02-16T08:13:55.862Z,14.71
2023-02-16T08:16:29.300Z,14.97
2023-02-16T08:19:01.252Z,14.29
2023-02-16T08:21:34.280Z,15.60
2023-02-16T08:24:07.450Z,15.47
2023-02-16T08:26:40.962Z,15.91
2023-02-16T08:29:14.166Z,16.38
2023-02-16T08:31:47.605Z,15.74
2023-02-16T08:34:21.493Z,16.32
2023-02-16T08:36:57.442Z,15.24
2023-02-16T08:39:31.599Z,14.88
2023-02-16T08:42:03.935Z,15.68
2023-02-16T08:44:34.644Z,15.82
2023-02-16T08:47:05.567Z,16.45
2023-02-16T08:49:36.305Z,16.76
2023-02-16T08:52:07.581Z,16.93
2023-02-16T08:54:39.097Z,16.89
2023-02-16T08:57:09.743Z,16.53
2023-02-16T08:59:40.540Z,16.89
2023-02-16T09:02:12.517Z,17.61
2023-02-16T09:04:47.795Z,17.11
2023-02-16T09:07:18.050Z,18.16
2023-02-16T09:09:50.043Z,17.48
2023-02-16T09:12:22.370Z,18.29
2023-02-16T09:14:57.887Z,17.22
2023-02-16T09:17:31.279Z,18.00
2023-02-16T09:20:02.279Z,18.82
2023-02-16T09:22:33.400Z,17.73
2023-02-16T09:25:04.457Z,17.40
2023-02-16T09:27:35.596Z,17.05
2023-02-16T09:30:07.045Z,17.62
2023-02-16T09:32:37.910Z,18.47
2023-02-16T09:35:09.702Z,18.62
2023-02-16T09:37:40.729Z,19.63
2023-02-16T09:40:15.206Z,19.67
2023-02-16T09:42:54.986Z,18.76
2023-02-16T09:45:27.137Z,20.73
2023-02-16T09:47:59.553Z,20.77
2023-02-16T09:50:52.523Z,21.26
2023-02-16T09:53:18.583Z,22.06
2023-02-16T09:56:03.067Z,22.74
2023-02-16T09:58:53.196Z,22.08
2023-02-16T10:01:49.506Z,22.63
2023-02-16T10:04:20.848Z,22.44
2023-02-16T10:07:22.406Z,22.40
2023-02-16T10:09:55.505Z,22.60
2023-02-16T10:12:28.953Z,23.79
2023-02-16T10:15:02.709Z,22.46
2023-02-16T10:17:37.932Z,23.72
2023-02-16T10:20:19.805Z,23.93
2023-02-16T10:23:05.659Z,24.23
2023-02-16T10:25:53.157Z,24.10
2023-02-16T10:28:53.172Z,23.35
2023-02-16T10:31:42.892Z,23.90
2023-02-16T10:37:19.819Z,25.79
2023-02-16T10:39:53.681Z,24.76
2023-02-16T10:42:41.214Z,25.30
2023-02-16T10:45:34.348Z,24.47
2023-02-16T10:48:05.760Z,25.22
2023-02-16T10:50:47.055Z,23.93
2023-02-16T10:53:29.292Z,21.80
2023-02-16T10:56:00.945Z,21.30
2023-02-16T10:58:34.468Z,21.82
2023-02-16T11:01:10.849Z,21.97
2023-02-16T11:03:47.190Z,22.52
2023-02-16T11:06:20.686Z,22.92
2023-02-16T11:08:58.114Z,21.97
2023-02-16T11:11:31.654Z,22.33
2023-02-16T11:14:09.203Z,22.78
2023-02-16T11:16:41.796Z,21.69
2023-02-16T11:19:21.208Z,21.25
2023-02-16T11:21:58.635Z,22.61
2023-02-16T11:24:32.358Z,22.49
2023-02-16T11:27:08.330Z,21.66
2023-02-16T11:29:40.346Z,21.13
2023-02-16T11:32:14.100Z,20.94
2023-02-16T11:34:50.459Z,21.15
2023-02-16T11:37:31.087Z,21.50
2023-02-16T11:40:10.920Z,19.33
2023-02-16T11:42:50.400Z,20.81
2023-02-16T11:45:23.858Z,21.60
2023-02-16T11:47:57.416Z,21.77
2023-02-16T11:50:31.120Z,20.77
2023-02-16T11:53:14.990Z,20.28
2023-02-16T11:55:50.546Z,20.28
2023-02-16T11:58:26.789Z,20.66
2023-02-16T12:01:08.658Z,19.84
2023-02-16T12:04:14.230Z,20.14
2023-02-16T12:07:04.746Z,21.38
2023-02-16T12:09:56.443Z,22.65
2023-02-16T12:12:46.680Z,21.99
2023-02-16T12:15:25.930Z,23.12
2023-02-16T12:18:05.359Z,22.90
2023-02-16T12:20:44.796Z,20.13
2023-02-16T12:23:36.450Z,22.61
2023-02-16T12:26:32.669Z,22.80
2023-02-16T12:29:13.005Z,23.35
2023-02-16T12:31:52.299Z,22.11
2023-02-16T12:34:43.630Z,23.21
2023-02-16T12:37:26.063Z,25.05
2023-02-16T12:40:22.161Z,24.58
2023-02-16T12:43:16.819Z,22.77
2023-02-16T12:45:48.417Z,23.17
2023-02-16T12:48:27.764Z,23.82
2023-02-16T12:51:00.363Z,23.40
2023-02-16T12:53:36.740Z,22.47
2023-02-16T12:56:12.365Z,23.14
2023-02-16T12:58:45.801Z,23.17
2023-02-16T13:01:25.500Z,23.45
2023-02-16T13:04:20.392Z,22.47
2023-02-16T13:07:18.349Z,21.77
2023-02-16T13:10:02.213Z,24.29
2023-02-16T13:12:41.538Z,23.51
2023-02-16T13:15:17.711Z,23.59
2023-02-16T13:17:56.653Z,23.86
2023-02-16T13:20:28.341Z,24.16
2023-02-16T13:23:15.544Z,23.77
2023-02-16T13:25:53.672Z,23.78
2023-02-16T13:28:51.882Z,23.60
2023-02-16T13:31:48.244Z,23.94
2023-02-16T13:34:38.517Z,24.52
2023-02-16T13:37:25.385Z,24.19
2023-02-16T13:40:01.765Z,24.06
2023-02-16T13:43:05.410Z,23.87
2023-02-16T13:45:42.469Z,24.02
2023-02-16T13:48:16.715Z,23.43
2023-02-16T13:50:48.649Z,23.74
2023-02-16T13:53:22.279Z,22.97
2023-02-16T13:56:12.257Z,21.79
2023-02-16T13:58:42.823Z,22.86
2023-02-16T14:01:42.294Z,22.28
2023-02-16T14:04:17.007Z,22.66
2023-02-16T14:07:08.183Z,23.61
2023-02-16T14:09:42.319Z,22.04
2023-02-16T14:12:21.735Z,23.21
2023-02-16T14:14:58.356Z,23.41
2023-02-16T14:17:34.970Z,23.94
2023-02-16T14:20:17.361Z,24.29
2023-02-16T14:22:55.984Z,23.79
2023-02-16T14:25:30.906Z,24.43
2023-02-16T14:28:07.857Z,23.78
2023-02-16T14:30:50.151Z,23.60
2023-02-16T14:33:23.695Z,23.93
2023-02-16T14:36:07.211Z,23.47
2023-02-16T14:38:47.788Z,24.13
2023-02-16T14:41:30.757Z,23.50
2023-02-16T14:44:09.974Z,23.75
2023-02-16T14:47:00.952Z,21.71
2023-02-16T14:49:52.280Z,23.68
2023-02-16T14:52:53.400Z,22.91
2023-02-16T14:55:29.969Z,23.33
2023-02-16T14:58:38.254Z,22.53
2023-02-16T15:01:14.514Z,23.04
2023-02-16T15:03:56.553Z,23.61
2023-02-16T15:06:30.261Z,22.86
2023-02-16T15:09:04.158Z,24.01
2023-02-16T15:11:42.099Z,23.86
2023-02-16T15:14:14.436Z,23.82
2023-02-16T15:16:45.959Z,23.46
2023-02-16T15:19:21.674Z,22.95
2023-02-16T15:22:11.272Z,22.78
2023-02-16T15:24:43.194Z,23.17
2023-02-16T15:27:26.092Z,22.56
2023-02-16T15:30:09.716Z,22.60
2023-02-16T15:32:41.354Z,22.88
2023-02-16T15:35:14.498Z,22.61
2023-02-16T15:37:45.050Z,21.76
2023-02-16T15:40:25.435Z,22.61
2023-02-16T15:42:52.023Z,22.34
2023-02-16T15:45:30.786Z,21.67
2023-02-16T15:48:37.055Z,21.34
2023-02-16T15:51:11.342Z,21.88
2023-02-16T15:53:59.916Z,22.12
2023-02-16T15:56:51.509Z,21.41
2023-02-16T15:59:47.906Z,21.28
2023-02-16T16:02:24.506Z,21.82
2023-02-16T16:05:01.326Z,21.59
2023-02-16T16:07:35.890Z,21.86
2023-02-16T16:10:12.306Z,21.43
2023-02-16T16:12:46.730Z,20.81
2023-02-16T16:15:24.100Z,20.34
2023-02-16T16:17:57.660Z,21.47
2023-02-16T16:20:34.972Z,21.47
2023-02-16T16:23:17.727Z,20.64
2023-02-16T16:25:51.934Z,20.99
2023-02-16T16:28:32.318Z,20.99
2023-02-16T16:31:11.740Z,20.28
2023-02-16T16:34:03.908Z,20.18
2023-02-16T16:36:47.391Z,20.82
2023-02-16T16:39:22.330Z,20.54
2023-02-16T16:42:18.490Z,21.22
2023-02-16T16:45:08.020Z,20.74
2023-02-16T16:47:41.568Z,20.74
2023-02-16T16:50:15.787Z,20.99
2023-02-16T16:52:52.299Z,21.34
2023-02-16T16:55:27.084Z,20.82
2023-02-16T16:58:01.188Z,20.82
2023-02-16T17:00:34.876Z,21.18
2023-02-16T17:03:07.964Z,21.85
2023-02-16T17:05:40.872Z,21.33
2023-02-16T17:08:13.789Z,21.12
2023-02-16T17:10:44.895Z,20.97
2023-02-16T17:13:19.362Z,20.04
2023-02-16T17:15:55.635Z,20.47
2023-02-16T17:18:26.214Z,20.27
2023-02-16T17:20:57.611Z,19.69
2023-02-16T17:23:28.182Z,20.51
2023-02-16T17:26:02.016Z,19.52
2023-02-16T17:28:36.994Z,20.67
2023-02-16T17:31:09.723Z,19.68
2023-02-16T17:33:41.950Z,19.57
2023-02-16T17:36:15.678Z,19.75
2023-02-16T17:38:47.249Z,18.81
2023-02-16T17:41:27.835Z,19.42
2023-02-16T17:43:59.281Z,19.23
2023-02-16T17:46:33.044Z,19.55
2023-02-16T17:49:05.375Z,19.43
2023-02-16T17:51:36.641Z,20.30
2023-02-16T17:54:11.896Z,18.73
2023-02-16T17:56:44.938Z,19.26
2023-02-16T17:59:16.495Z,19.60
2023-02-16T18:01:48.550Z,18.38
2023-02-16T18:04:19.951Z,19.27
2023-02-16T18:06:51.779Z,19.45
2023-02-16T18:09:23.998Z,19.52
2023-02-16T18:11:54.566Z,20.03
2023-02-16T18:14:25.251Z,20.22
2023-02-16T18:16:58.538Z,18.40
2023-02-16T18:19:32.084Z,19.32
2023-02-16T18:22:03.816Z,18.86
2023-02-16T18:24:36.064Z,17.95
2023-02-16T18:27:07.221Z,18.05
2023-02-16T18:29:38.083Z,18.72
2023-02-16T18:32:09.910Z,18.52
2023-02-16T18:34:40.542Z,18.13
2023-02-16T18:37:11.058Z,19.47
2023-02-16T18:39:43.014Z,17.55
2023-02-16T18:42:13.788Z,18.89
2023-02-16T18:44:48.495Z,19.30
2023-02-16T18:47:19.755Z,19.79
2023-02-16T18:49:52.819Z,18.61
2023-02-16T18:52:23.937Z,17.95
2023-02-16T18:54:55.308Z,18.74
2023-02-16T18:57:28.944Z,18.87
2023-02-16T19:00:00.847Z,19.43
2023-02-16T19:02:31.951Z,19.15
2023-02-16T19:05:03.672Z,18.97
2023-02-16T19:07:35.451Z,19.49
2023-02-16T19:10:10.092Z,18.47
2023-02-16T19:12:42.283Z,18.52
2023-02-16T19:15:14.686Z,19.53
2023-02-16T19:17:46.139Z,19.01
2023-02-16T19:20:19.219Z,19.33
2023-02-16T19:22:51.774Z,18.46
2023-02-16T19:25:24.055Z,18.37
2023-02-16T19:27:56.110Z,18.47
2023-02-16T19:30:30.099Z,18.91
2023-02-16T19:33:04.361Z,19.20
2023-02-16T19:35:39.063Z,19.66
2023-02-16T19:38:11.092Z,18.90
2023-02-16T19:40:46.271Z,18.53
2023-02-16T19:43:18.360Z,19.82
2023-02-16T19:45:52.383Z,19.22
2023-02-16T19:48:25.021Z,19.38
2023-02-16T19:51:00.963Z,19.75
2023-02-16T19:53:33.031Z,19.70
2023-02-16T19:56:07.972Z,19.59
2023-02-16T19:58:39.082Z,19.22
2023-02-16T20:01:12.493Z,18.85
2023-02-16T20:03:44.867Z,19.64
2023-02-16T20:06:18.397Z,19.79
2023-02-16T20:08:51.020Z,19.73
2023-02-16T20:11:24.188Z,19.58
2023-02-16T20:13:57.213Z,20.22
2023-02-16T20:16:29.715Z,20.19
2023-02-16T20:19:01.444Z,19.32
2023-02-16T20:21:33.175Z,19.22
2023-02-16T20:24:07.156Z,20.12
2023-02-16T20:26:41.922Z,20.50
2023-02-16T20:29:17.358Z,19.56
2023-02-16T20:31:54.337Z,18.30
2023-02-16T20:34:28.358Z,19.31
2023-02-16T20:36:59.800Z,19.65
2023-02-16T20:39:31.538Z,18.97
2023-02-16T20:42:05.124Z,18.33
2023-02-16T20:44:36.438Z,19.23
2023-02-16T20:47:10.702Z,19.09
2023-02-16T20:49:42.589Z,19.44
2023-02-16T20:52:13.921Z,19.14
2023-02-16T20:54:45.159Z,18.95
2023-02-16T20:57:26.502Z,19.41
2023-02-16T20:59:49.353Z,19.86
2023-02-16T21:02:22.013Z,19.60
2023-02-16T21:04:55.907Z,19.19
2023-02-16T21:07:26.610Z,18.80
2023-02-16T21:09:57.597Z,19.26
2023-02-16T21:12:28.466Z,20.32
2023-02-16T21:14:59.115Z,19.12
2023-02-16T21:17:29.819Z,19.16
2023-02-16T21:20:00.552Z,19.56
2023-02-16T21:22:31.228Z,20.53
2023-02-16T21:25:02.144Z,20.94
2023-02-16T21:27:32.964Z,20.89
2023-02-16T21:30:03.786Z,20.31
2023-02-16T21:32:34.742Z,20.44
2023-02-16T21:35:05.575Z,20.83
2023-02-16T21:37:38.980Z,21.29
2023-02-16T21:40:29.199Z,20.87
2023-02-16T21:43:00.434Z,20.62
2023-02-16T21:45:32.595Z,19.82
2023-02-16T21:48:21.537Z,20.90
2023-02-16T21:50:52.347Z,20.85
2023-02-16T21:53:23.593Z,21.07
2023-02-16T21:56:12.452Z,20.74
2023-02-16T21:58:43.787Z,20.89
2023-02-16T22:01:15.258Z,20.81
2023-02-16T22:03:46.053Z,20.27
2023-02-16T22:06:17.009Z,20.52
2023-02-16T22:08:47.908Z,20.69
2023-02-16T22:11:18.826Z,20.84
2023-02-16T22:13:53.016Z,20.99
2023-02-16T22:16:24.190Z,19.52
2023-02-16T22:19:05.013Z,19.98
2023-02-16T22:21:38.104Z,19.52
2023-02-16T22:24:09.692Z,20.31
2023-02-16T22:26:40.541Z,20.40
2023-02-16T22:29:12.045Z,20.52
2023-02-16T22:31:49.191Z,20.27
2023-02-16T22:34:24.602Z,20.79
2023-02-16T22:36:54.567Z,21.45
2023-02-16T22:39:31.152Z,21.44
2023-02-16T22:42:00.308Z,21.10
2023-02-16T22:44:31.023Z,21.04
2023-02-16T22:47:02.642Z,20.70
2023-02-16T22:49:36.470Z,20.85
2023-02-16T22:52:11.629Z,20.08
2023-02-16T22:54:42.172Z,20.08
2023-02-16T22:57:12.801Z,20.02
2023-02-16T22:59:44.519Z,20.44
2023-02-16T23:02:15.255Z,20.42
2023-02-16T23:04:47.476Z,20.63
2023-02-16T23:07:19.316Z,19.98
2023-02-16T23:09:49.931Z,20.01
2023-02-16T23:12:20.673Z,20.47
2023-02-16T23:14:56.825Z,20.00
2023-02-16T23:17:28.235Z,20.00
2023-02-16T23:19:59.011Z,19.93
2023-02-16T23:22:31.963Z,20.97
2023-02-16T23:25:26.241Z,20.80
2023-02-16T23:28:12.712Z,20.97
2023-02-16T23:30:52.935Z,20.97
2023-02-16T23:33:24.039Z,20.85
2023-02-16T23:35:55.118Z,21.44
2023-02-16T23:38:26.011Z,21.38
2023-02-16T23:41:05.037Z,20.75
2023-02-16T23:43:36.006Z,20.05
2023-02-16T23:46:07.535Z,20.17
2023-02-16T23:48:41.038Z,20.17
2023-02-16T23:51:13.344Z,19.48
2023-02-16T23:53:43.995Z,20.35
2023-02-16T23:56:23.851Z,20.27
2023-02-16T23:59:00.230Z,20.52
